createdAt,value
2018-07-22T00:00:48.476Z,0
2018-07-22T00:01:48.210Z,0
2018-07-22T00:02:48.475Z,0
2018-07-22T00:03:48.473Z,0
2018-07-22T00:04:48.200Z,0
2018-07-22T00:05:48.461Z,0
2018-07-22T00:06:48.196Z,0
2018-07-22T00:07:48.454Z,0
2018-07-22T00:08:47.937Z,0
2018-07-22T00:09:48.455Z,0
2018-07-22T00:10:48.180Z,0
2018-07-22T00:11:48.184Z,0
2018-07-22T00:12:48.438Z,0
2018-07-22T00:13:48.175Z,0
2018-07-22T00:14:48.441Z,0
2018-07-22T00:15:48.177Z,0
2018-07-22T00:16:48.435Z,0
2018-07-22T00:17:48.421Z,0
2018-07-22T00:18:48.158Z,0
2018-07-22T00:19:47.892Z,0
2018-07-22T00:20:48.151Z,0
2018-07-22T00:21:48.148Z,0
2018-07-22T00:22:48.399Z,0
2018-07-22T00:23:48.145Z,0
2018-07-22T00:24:48.140Z,0
2018-07-22T00:25:48.392Z,0
2018-07-22T00:26:48.131Z,0
2018-07-22T00:27:48.172Z,0
2018-07-22T00:28:48.394Z,0
2018-07-22T00:29:48.122Z,0
2018-07-22T00:30:48.380Z,0
2018-07-22T00:31:48.375Z,0
2018-07-22T00:32:48.108Z,0
2018-07-22T00:33:48.363Z,0
2018-07-22T00:34:48.101Z,0
2018-07-22T00:35:48.137Z,0
2018-07-22T00:36:48.349Z,0
2018-07-22T00:37:47.834Z,0
2018-07-22T00:38:48.361Z,0
2018-07-22T00:39:48.338Z,0
2018-07-22T00:40:48.084Z,0
2018-07-22T00:41:48.081Z,0
2018-07-22T00:42:47.818Z,0
2018-07-22T00:43:48.318Z,0
2018-07-22T00:44:48.066Z,0
2018-07-22T00:45:48.328Z,0
2018-07-22T00:46:48.061Z,0
2018-07-22T00:47:48.055Z,0
2018-07-22T00:48:47.796Z,0
2018-07-22T00:49:48.305Z,0
2018-07-22T00:50:48.308Z,0
2018-07-22T00:51:48.296Z,0
2018-07-22T00:52:48.296Z,0
2018-07-22T00:53:48.292Z,0
2018-07-22T00:54:48.286Z,0
2018-07-22T00:55:48.029Z,0
2018-07-22T00:56:48.023Z,0
2018-07-22T00:57:48.282Z,0
2018-07-22T00:58:48.272Z,0
2018-07-22T00:59:48.366Z,0
2018-07-22T01:00:48.275Z,0
2018-07-22T01:01:48.015Z,0
2018-07-22T01:02:48.262Z,0
2018-07-22T01:03:48.262Z,0
2018-07-22T01:04:48.002Z,0
2018-07-22T01:05:48.255Z,0
2018-07-22T01:06:48.244Z,0
2018-07-22T01:07:48.247Z,0
2018-07-22T01:08:48.244Z,0
2018-07-22T01:09:47.984Z,0
2018-07-22T01:10:47.974Z,0
2018-07-22T01:11:48.230Z,0
2018-07-22T01:12:47.973Z,0
2018-07-22T01:13:47.963Z,0
2018-07-22T01:14:47.956Z,0
2018-07-22T01:15:47.960Z,0
2018-07-22T01:16:48.206Z,0
2018-07-22T01:17:48.206Z,0
2018-07-22T01:18:47.947Z,0
2018-07-22T01:19:47.944Z,0
2018-07-22T01:20:48.195Z,0
2018-07-22T01:21:48.194Z,0
2018-07-22T01:22:47.931Z,0
2018-07-22T01:23:48.197Z,0
2018-07-22T01:24:48.182Z,0
2018-07-22T01:25:48.176Z,0
2018-07-22T01:26:47.914Z,0
2018-07-22T01:27:48.180Z,0
2018-07-22T01:28:48.174Z,0
2018-07-22T01:29:48.171Z,0
2018-07-22T01:30:48.168Z,0
2018-07-22T01:31:48.178Z,0
2018-07-22T01:32:48.162Z,0
2018-07-22T01:33:47.899Z,0
2018-07-22T01:34:48.152Z,0
2018-07-22T01:35:48.142Z,0
2018-07-22T01:36:48.138Z,0
2018-07-22T01:37:48.132Z,0
2018-07-22T01:38:48.141Z,0
2018-07-22T01:39:48.128Z,0
2018-07-22T01:40:48.132Z,0
2018-07-22T01:41:48.122Z,0
2018-07-22T01:42:48.125Z,0
2018-07-22T01:43:48.124Z,0
2018-07-22T01:44:47.863Z,0
2018-07-22T01:45:48.113Z,0
2018-07-22T01:46:47.846Z,0
2018-07-22T01:47:48.100Z,0
2018-07-22T01:48:48.095Z,0
2018-07-22T01:49:47.585Z,0
2018-07-22T01:50:48.084Z,0
2018-07-22T01:51:48.079Z,0
2018-07-22T01:52:47.829Z,0
2018-07-22T01:53:47.821Z,0
2018-07-22T01:54:47.819Z,0
2018-07-22T01:55:47.812Z,0
2018-07-22T01:56:48.071Z,0
2018-07-22T01:57:48.070Z,0
2018-07-22T01:58:48.062Z,0
2018-07-22T01:59:47.543Z,0
2018-07-22T02:00:48.057Z,0
2018-07-22T02:01:48.247Z,0
2018-07-22T02:02:48.084Z,0
2018-07-22T02:03:47.796Z,0
2018-07-22T02:04:48.044Z,0
2018-07-22T02:05:48.030Z,0
2018-07-22T02:06:48.027Z,0
2018-07-22T02:07:47.768Z,0
2018-07-22T02:08:48.053Z,0
2018-07-22T02:09:48.018Z,0
2018-07-22T02:10:48.055Z,0
2018-07-22T02:11:47.758Z,0
2018-07-22T02:12:48.018Z,0
2018-07-22T02:13:47.751Z,0
2018-07-22T02:14:47.484Z,0
2018-07-22T02:15:47.998Z,0
2018-07-22T02:16:47.999Z,0
2018-07-22T02:17:47.989Z,0
2018-07-22T02:18:47.980Z,0
2018-07-22T02:19:47.980Z,0
2018-07-22T02:20:48.095Z,0
2018-07-22T02:21:47.714Z,0
2018-07-22T02:22:47.719Z,0
2018-07-22T02:23:47.964Z,0
2018-07-22T02:24:47.964Z,0
2018-07-22T02:25:47.965Z,0
2018-07-22T02:26:47.705Z,0
2018-07-22T02:27:47.955Z,0
2018-07-22T02:28:47.950Z,0
2018-07-22T02:29:47.947Z,0
2018-07-22T02:30:47.944Z,0
2018-07-22T02:31:47.936Z,0
2018-07-22T02:32:47.419Z,0
2018-07-22T02:33:47.941Z,0
2018-07-22T02:34:47.929Z,0
2018-07-22T02:35:47.927Z,0
2018-07-22T02:36:47.918Z,0
2018-07-22T02:37:47.923Z,0
2018-07-22T02:38:47.904Z,0
2018-07-22T02:39:47.649Z,0
2018-07-22T02:40:47.647Z,0
2018-07-22T02:41:47.661Z,0
2018-07-22T02:42:47.897Z,0
2018-07-22T02:43:47.636Z,0
2018-07-22T02:44:47.901Z,0
2018-07-22T02:45:47.114Z,0
2018-07-22T02:46:47.630Z,0
2018-07-22T02:47:47.881Z,0
2018-07-22T02:48:47.878Z,0
2018-07-22T02:49:47.881Z,0
2018-07-22T02:50:47.869Z,0
2018-07-22T02:51:47.884Z,0
2018-07-22T02:52:47.890Z,0
2018-07-22T02:53:47.602Z,0
2018-07-22T02:54:47.847Z,0
2018-07-22T02:55:47.858Z,0
2018-07-22T02:56:47.859Z,0
2018-07-22T02:57:47.583Z,0
2018-07-22T02:58:47.833Z,0
2018-07-22T02:59:47.573Z,0
2018-07-22T03:00:47.829Z,4
2018-07-22T03:01:47.826Z,4
2018-07-22T03:02:47.853Z,0
2018-07-22T03:03:47.564Z,4
2018-07-22T03:04:47.813Z,4
2018-07-22T03:05:47.812Z,4
2018-07-22T03:06:47.811Z,4
2018-07-22T03:07:47.805Z,4
2018-07-22T03:08:47.278Z,8
2018-07-22T03:09:47.873Z,8
2018-07-22T03:10:47.792Z,8
2018-07-22T03:11:47.788Z,8
2018-07-22T03:12:47.266Z,8
2018-07-22T03:13:47.777Z,12
2018-07-22T03:14:47.776Z,8
2018-07-22T03:15:47.781Z,12
2018-07-22T03:16:47.761Z,12
2018-07-22T03:17:47.769Z,12
2018-07-22T03:18:47.759Z,12
2018-07-22T03:19:47.746Z,12
2018-07-22T03:20:47.494Z,16
2018-07-22T03:21:47.496Z,20
2018-07-22T03:22:47.755Z,16
2018-07-22T03:23:47.223Z,20
2018-07-22T03:24:47.484Z,20
2018-07-22T03:25:47.737Z,20
2018-07-22T03:26:47.727Z,24
2018-07-22T03:27:47.726Z,28
2018-07-22T03:28:47.464Z,32
2018-07-22T03:29:47.198Z,32
2018-07-22T03:30:47.459Z,36
2018-07-22T03:31:47.721Z,36
2018-07-22T03:32:47.701Z,40
2018-07-22T03:33:47.434Z,44
2018-07-22T03:34:47.692Z,48
2018-07-22T03:35:47.691Z,56
2018-07-22T03:36:47.422Z,64
2018-07-22T03:37:47.428Z,68
2018-07-22T03:38:47.417Z,72
2018-07-22T03:39:47.671Z,80
2018-07-22T03:40:47.668Z,88
2018-07-22T03:41:47.667Z,96
2018-07-22T03:42:47.401Z,104
2018-07-22T03:43:47.652Z,112
2018-07-22T03:44:47.396Z,116
2018-07-22T03:45:47.645Z,128
2018-07-22T03:46:47.387Z,136
2018-07-22T03:47:47.385Z,144
2018-07-22T03:48:47.125Z,152
2018-07-22T03:49:47.632Z,164
2018-07-22T03:50:47.632Z,176
2018-07-22T03:51:47.107Z,192
2018-07-22T03:52:47.622Z,208
2018-07-22T03:53:47.358Z,228
2018-07-22T03:54:47.359Z,248
2018-07-22T03:55:47.607Z,272
2018-07-22T03:56:47.609Z,300
2018-07-22T03:57:47.600Z,328
2018-07-22T03:58:47.594Z,352
2018-07-22T03:59:47.333Z,380
2018-07-22T04:00:47.590Z,404
2018-07-22T04:01:47.323Z,428
2018-07-22T04:02:47.321Z,448
2018-07-22T04:03:47.571Z,464
2018-07-22T04:04:47.579Z,476
2018-07-22T04:05:47.564Z,484
2018-07-22T04:06:47.305Z,488
2018-07-22T04:07:47.581Z,492
2018-07-22T04:08:47.562Z,500
2018-07-22T04:09:47.552Z,504
2018-07-22T04:10:47.548Z,512
2018-07-22T04:11:47.301Z,520
2018-07-22T04:12:47.285Z,524
2018-07-22T04:13:47.285Z,528
2018-07-22T04:14:47.533Z,532
2018-07-22T04:15:47.530Z,524
2018-07-22T04:16:47.267Z,528
2018-07-22T04:17:47.007Z,524
2018-07-22T04:18:47.522Z,532
2018-07-22T04:19:47.507Z,540
2018-07-22T04:20:47.513Z,560
2018-07-22T04:21:47.515Z,588
2018-07-22T04:22:47.585Z,620
2018-07-22T04:23:46.982Z,656
2018-07-22T04:24:47.497Z,688
2018-07-22T04:25:47.501Z,724
2018-07-22T04:26:47.491Z,756
2018-07-22T04:27:47.484Z,784
2018-07-22T04:28:47.488Z,820
2018-07-22T04:29:47.216Z,852
2018-07-22T04:30:47.464Z,884
2018-07-22T04:31:47.464Z,920
2018-07-22T04:32:47.470Z,952
2018-07-22T04:33:47.456Z,988
2018-07-22T04:34:47.208Z,1024
2018-07-22T04:35:47.451Z,1060
2018-07-22T04:36:47.453Z,1092
2018-07-22T04:37:47.437Z,1120
2018-07-22T04:38:47.432Z,1144
2018-07-22T04:39:47.189Z,1156
2018-07-22T04:40:47.201Z,1172
2018-07-22T04:41:47.435Z,1180
2018-07-22T04:42:47.419Z,1188
2018-07-22T04:43:47.422Z,1196
2018-07-22T04:44:47.416Z,1220
2018-07-22T04:45:47.412Z,1240
2018-07-22T04:46:47.405Z,1260
2018-07-22T04:47:47.413Z,1276
2018-07-22T04:48:46.883Z,1288
2018-07-22T04:49:47.394Z,1296
2018-07-22T04:50:47.133Z,1316
2018-07-22T04:51:47.385Z,1340
2018-07-22T04:52:47.126Z,1364
2018-07-22T04:53:47.126Z,1392
2018-07-22T04:54:47.374Z,1432
2018-07-22T04:55:46.858Z,1472
2018-07-22T04:56:47.364Z,1508
2018-07-22T04:57:47.365Z,1552
2018-07-22T04:58:47.106Z,1592
2018-07-22T04:59:47.357Z,1636
2018-07-22T05:00:47.092Z,1692
2018-07-22T05:01:47.094Z,1756
2018-07-22T05:02:47.355Z,1836
2018-07-22T05:03:47.342Z,1924
2018-07-22T05:04:47.075Z,2008
2018-07-22T05:05:47.332Z,2088
2018-07-22T05:06:47.328Z,2152
2018-07-22T05:07:47.321Z,2192
2018-07-22T05:08:47.318Z,2224
2018-07-22T05:09:47.068Z,2252
2018-07-22T05:10:47.339Z,2284
2018-07-22T05:11:47.316Z,2300
2018-07-22T05:12:47.049Z,2264
2018-07-22T05:13:47.301Z,2224
2018-07-22T05:14:47.301Z,2128
2018-07-22T05:15:47.295Z,2392
2018-07-22T05:16:47.296Z,2444
2018-07-22T05:17:47.038Z,2500
2018-07-22T05:18:47.283Z,2544
2018-07-22T05:19:46.765Z,2568
2018-07-22T05:20:47.283Z,2612
2018-07-22T05:21:47.280Z,2672
2018-07-22T05:22:47.016Z,2744
2018-07-22T05:23:47.266Z,2832
2018-07-22T05:24:47.266Z,2932
2018-07-22T05:25:47.264Z,3036
2018-07-22T05:26:47.011Z,3132
2018-07-22T05:27:46.996Z,3204
2018-07-22T05:28:47.253Z,3248
2018-07-22T05:29:47.255Z,3264
2018-07-22T05:30:47.275Z,3240
2018-07-22T05:31:47.237Z,3240
2018-07-22T05:32:47.234Z,3248
2018-07-22T05:33:47.232Z,3252
2018-07-22T05:34:46.972Z,3256
2018-07-22T05:35:47.293Z,3256
2018-07-22T05:36:47.223Z,3276
2018-07-22T05:37:46.961Z,3312
2018-07-22T05:38:46.959Z,3328
2018-07-22T05:39:47.209Z,3332
2018-07-22T05:40:47.217Z,3328
2018-07-22T05:41:46.944Z,3316
2018-07-22T05:42:46.939Z,3300
2018-07-22T05:43:47.213Z,3292
2018-07-22T05:44:46.934Z,3284
2018-07-22T05:45:47.193Z,3252
2018-07-22T05:46:47.188Z,3196
2018-07-22T05:47:46.929Z,3160
2018-07-22T05:48:46.914Z,3124
2018-07-22T05:49:47.175Z,3080
2018-07-22T05:50:46.918Z,3040
2018-07-22T05:51:46.659Z,3012
2018-07-22T05:52:46.916Z,3000
2018-07-22T05:53:46.900Z,2992
2018-07-22T05:54:47.163Z,3020
2018-07-22T05:55:47.154Z,3056
2018-07-22T05:56:47.151Z,3128
2018-07-22T05:57:47.146Z,3204
2018-07-22T05:58:47.145Z,3272
2018-07-22T05:59:47.140Z,3336
2018-07-22T06:00:47.138Z,3388
2018-07-22T06:01:46.623Z,3420
2018-07-22T06:02:47.127Z,3444
2018-07-22T06:03:46.874Z,3440
2018-07-22T06:04:47.125Z,3424
2018-07-22T06:05:47.124Z,3396
2018-07-22T06:06:47.121Z,3372
2018-07-22T06:07:47.122Z,3340
2018-07-22T06:08:46.850Z,3312
2018-07-22T06:09:46.897Z,3288
2018-07-22T06:10:46.854Z,3260
2018-07-22T06:11:47.166Z,3252
2018-07-22T06:12:47.100Z,3260
2018-07-22T06:13:47.097Z,3268
2018-07-22T06:14:46.579Z,3264
2018-07-22T06:15:47.106Z,3248
2018-07-22T06:16:47.360Z,3224
2018-07-22T06:17:46.872Z,3184
2018-07-22T06:18:46.563Z,3132
2018-07-22T06:19:47.084Z,3080
2018-07-22T06:20:47.080Z,3032
2018-07-22T06:21:47.074Z,2984
2018-07-22T06:22:47.068Z,2936
2018-07-22T06:23:47.067Z,2884
2018-07-22T06:24:47.067Z,2840
2018-07-22T06:25:47.061Z,2812
2018-07-22T06:26:47.056Z,2784
2018-07-22T06:27:46.537Z,2776
2018-07-22T06:28:46.792Z,2772
2018-07-22T06:29:47.042Z,2764
2018-07-22T06:30:47.035Z,2748
2018-07-22T06:31:47.039Z,2724
2018-07-22T06:32:47.040Z,2696
2018-07-22T06:33:46.771Z,2668
2018-07-22T06:34:47.023Z,2624
2018-07-22T06:35:46.508Z,2568
2018-07-22T06:36:47.026Z,2516
2018-07-22T06:37:46.768Z,2484
2018-07-22T06:38:47.014Z,2476
2018-07-22T06:39:46.758Z,2488
2018-07-22T06:40:47.013Z,2524
2018-07-22T06:41:47.007Z,2560
2018-07-22T06:42:46.786Z,2588
2018-07-22T06:43:46.998Z,2616
2018-07-22T06:44:46.986Z,2636
2018-07-22T06:45:46.996Z,2644
2018-07-22T06:46:47.247Z,2644
2018-07-22T06:47:46.985Z,2640
2018-07-22T06:48:46.986Z,2636
2018-07-22T06:49:46.973Z,2628
2018-07-22T06:50:46.714Z,2624
2018-07-22T06:51:46.975Z,2616
2018-07-22T06:52:46.968Z,2608
2018-07-22T06:53:46.451Z,2612
2018-07-22T06:54:46.446Z,2620
2018-07-22T06:55:46.711Z,2640
2018-07-22T06:56:46.951Z,2664
2018-07-22T06:57:46.958Z,2680
2018-07-22T06:58:46.694Z,2704
2018-07-22T06:59:46.697Z,2732
2018-07-22T07:00:46.704Z,2760
2018-07-22T07:01:46.935Z,2792
2018-07-22T07:02:46.939Z,2820
2018-07-22T07:03:46.946Z,2856
2018-07-22T07:04:46.672Z,2888
2018-07-22T07:05:46.928Z,2920
2018-07-22T07:06:46.921Z,2960
2018-07-22T07:07:46.667Z,3000
2018-07-22T07:08:46.737Z,3032
2018-07-22T07:09:46.650Z,3064
2018-07-22T07:10:46.907Z,3096
2018-07-22T07:11:46.646Z,3124
2018-07-22T07:12:46.920Z,3156
2018-07-22T07:13:46.896Z,3188
2018-07-22T07:14:46.637Z,3212
2018-07-22T07:15:46.889Z,3244
2018-07-22T07:16:46.629Z,3260
2018-07-22T07:17:46.677Z,3272
2018-07-22T07:18:46.884Z,3276
2018-07-22T07:19:46.877Z,3276
2018-07-22T07:20:46.709Z,3272
2018-07-22T07:21:46.870Z,3268
2018-07-22T07:22:46.613Z,3272
2018-07-22T07:23:46.663Z,3280
2018-07-22T07:24:46.608Z,3292
2018-07-22T07:25:46.597Z,3312
2018-07-22T07:26:47.174Z,3332
2018-07-22T07:27:46.854Z,3356
2018-07-22T07:28:46.850Z,3384
2018-07-22T07:29:46.591Z,3412
2018-07-22T07:30:46.845Z,3452
2018-07-22T07:31:46.844Z,3484
2018-07-22T07:32:46.595Z,3528
2018-07-22T07:33:47.104Z,3572
2018-07-22T07:34:46.580Z,3612
2018-07-22T07:35:46.829Z,3652
2018-07-22T07:36:46.567Z,3684
2018-07-22T07:37:46.821Z,3720
2018-07-22T07:38:46.563Z,3756
2018-07-22T07:39:46.821Z,3796
2018-07-22T07:40:46.819Z,3828
2018-07-22T07:41:46.556Z,3860
2018-07-22T07:42:46.300Z,3892
2018-07-22T07:43:46.553Z,3920
2018-07-22T07:44:46.546Z,3936
2018-07-22T07:45:46.544Z,3956
2018-07-22T07:46:46.549Z,3972
2018-07-22T07:47:46.541Z,3984
2018-07-22T07:48:46.272Z,4004
2018-07-22T07:49:46.279Z,4020
2018-07-22T07:50:46.527Z,4048
2018-07-22T07:51:46.784Z,4080
2018-07-22T07:52:46.528Z,4116
2018-07-22T07:53:46.778Z,4164
2018-07-22T07:54:46.772Z,4216
2018-07-22T07:55:46.767Z,4284
2018-07-22T07:56:46.518Z,4356
2018-07-22T07:57:46.504Z,4436
2018-07-22T07:58:46.763Z,4520
2018-07-22T07:59:46.503Z,4608
2018-07-22T08:00:46.750Z,4700
2018-07-22T08:01:46.495Z,4792
2018-07-22T08:02:46.748Z,4892
2018-07-22T08:03:46.760Z,4988
2018-07-22T08:04:46.747Z,5076
2018-07-22T08:05:46.537Z,5164
2018-07-22T08:06:46.485Z,5248
2018-07-22T08:07:46.744Z,5320
2018-07-22T08:08:46.476Z,5396
2018-07-22T08:09:46.477Z,5472
2018-07-22T08:10:46.209Z,5568
2018-07-22T08:11:47.019Z,5664
2018-07-22T08:12:46.207Z,5764
2018-07-22T08:13:46.725Z,5868
2018-07-22T08:14:46.713Z,5968
2018-07-22T08:15:46.711Z,6060
2018-07-22T08:16:46.461Z,6152
2018-07-22T08:17:46.718Z,6232
2018-07-22T08:18:46.706Z,6320
2018-07-22T08:19:46.187Z,6412
2018-07-22T08:20:46.699Z,6520
2018-07-22T08:21:47.599Z,6656
2018-07-22T08:22:46.694Z,6792
2018-07-22T08:23:46.434Z,6940
2018-07-22T08:24:46.442Z,7100
2018-07-22T08:25:46.690Z,7264
2018-07-22T08:26:46.436Z,7408
2018-07-22T08:27:46.433Z,7548
2018-07-22T08:28:46.680Z,7680
2018-07-22T08:29:46.422Z,7796
2018-07-22T08:30:46.418Z,7900
2018-07-22T08:31:46.417Z,8008
2018-07-22T08:32:46.664Z,8128
2018-07-22T08:33:46.668Z,8284
2018-07-22T08:34:46.663Z,8432
2018-07-22T08:35:46.404Z,8564
2018-07-22T08:36:46.655Z,8688
2018-07-22T08:37:46.654Z,8780
2018-07-22T08:38:46.658Z,8856
2018-07-22T08:39:46.397Z,8908
2018-07-22T08:40:46.397Z,8976
2018-07-22T08:41:46.825Z,9068
2018-07-22T08:42:46.648Z,9140
2018-07-22T08:43:46.394Z,9212
2018-07-22T08:44:46.647Z,9332
2018-07-22T08:45:45.864Z,9504
2018-07-22T08:46:46.702Z,9632
2018-07-22T08:47:46.647Z,9752
2018-07-22T08:48:45.866Z,9840
2018-07-22T08:49:46.627Z,9920
2018-07-22T08:50:46.628Z,10008
2018-07-22T08:51:46.371Z,10112
2018-07-22T08:52:46.374Z,10208
2018-07-22T08:53:46.376Z,10292
2018-07-22T08:54:46.622Z,10564
2018-07-22T08:55:46.622Z,10720
2018-07-22T08:56:46.101Z,10888
2018-07-22T08:57:46.610Z,11096
2018-07-22T08:58:46.099Z,11284
2018-07-22T08:59:46.607Z,11460
2018-07-22T09:00:46.358Z,11628
2018-07-22T09:01:46.350Z,11808
2018-07-22T09:02:46.357Z,11976
2018-07-22T09:03:46.352Z,12164
2018-07-22T09:04:46.103Z,12340
2018-07-22T09:05:46.600Z,12508
2018-07-22T09:06:46.599Z,12684
2018-07-22T09:07:46.604Z,12840
2018-07-22T09:08:46.607Z,12992
2018-07-22T09:09:46.597Z,13112
2018-07-22T09:10:46.347Z,13224
2018-07-22T09:11:46.538Z,13296
2018-07-22T09:12:46.590Z,13340
2018-07-22T09:13:46.087Z,13560
2018-07-22T09:14:46.591Z,13772
2018-07-22T09:15:46.329Z,13992
2018-07-22T09:16:46.331Z,14124
2018-07-22T09:17:46.480Z,14244
2018-07-22T09:18:46.604Z,14364
2018-07-22T09:19:46.584Z,14460
2018-07-22T09:20:46.323Z,14648
2018-07-22T09:21:46.332Z,14852
2018-07-22T09:22:46.577Z,15040
2018-07-22T09:23:46.590Z,15224
2018-07-22T09:24:46.340Z,15392
2018-07-22T09:25:46.581Z,15476
2018-07-22T09:26:46.322Z,15556
2018-07-22T09:27:46.581Z,15740
2018-07-22T09:28:46.579Z,15532
2018-07-22T09:29:46.318Z,16512
2018-07-22T09:30:46.579Z,16800
2018-07-22T09:31:46.323Z,16864
2018-07-22T09:32:46.583Z,16832
2018-07-22T09:33:46.326Z,16928
2018-07-22T09:34:46.313Z,16896
2018-07-22T09:35:46.615Z,16832
2018-07-22T09:36:46.684Z,16768
2018-07-22T09:37:46.575Z,17664
2018-07-22T09:38:46.576Z,17728
2018-07-22T09:39:46.318Z,17824
2018-07-22T09:40:46.315Z,18208
2018-07-22T09:41:46.349Z,18272
2018-07-22T09:42:46.318Z,18112
2018-07-22T09:43:46.062Z,17280
2018-07-22T09:44:46.569Z,17344
2018-07-22T09:45:46.323Z,19008
2018-07-22T09:46:46.576Z,19552
2018-07-22T09:47:46.595Z,19584
2018-07-22T09:48:46.574Z,19136
2018-07-22T09:49:46.060Z,19648
2018-07-22T09:50:46.572Z,19200
2018-07-22T09:51:46.571Z,19840
2018-07-22T09:52:46.577Z,20064
2018-07-22T09:53:46.858Z,20160
2018-07-22T09:54:46.062Z,20384
2018-07-22T09:55:46.322Z,19840
2018-07-22T09:56:46.068Z,19552
2018-07-22T09:57:46.578Z,19744
2018-07-22T09:58:46.581Z,20832
2018-07-22T09:59:46.578Z,21120
2018-07-22T10:00:46.327Z,21248
2018-07-22T10:01:46.325Z,21504
2018-07-22T10:02:46.595Z,21632
2018-07-22T10:03:46.329Z,21632
2018-07-22T10:04:46.726Z,21376
2018-07-22T10:05:46.596Z,21696
2018-07-22T10:06:46.330Z,21856
2018-07-22T10:07:46.588Z,21312
2018-07-22T10:08:46.596Z,21920
2018-07-22T10:09:46.594Z,22368
2018-07-22T10:10:46.335Z,21952
2018-07-22T10:11:46.595Z,22400
2018-07-22T10:12:46.601Z,23104
2018-07-22T10:13:46.595Z,23232
2018-07-22T10:14:47.433Z,23200
2018-07-22T10:15:46.342Z,23456
2018-07-22T10:16:46.349Z,22528
2018-07-22T10:17:46.956Z,22656
2018-07-22T10:18:46.613Z,22816
2018-07-22T10:19:46.618Z,22272
2018-07-22T10:20:46.350Z,22304
2018-07-22T10:21:46.355Z,22112
2018-07-22T10:22:46.616Z,21760
2018-07-22T10:23:46.359Z,21760
2018-07-22T10:24:46.361Z,21760
2018-07-22T10:25:46.626Z,21952
2018-07-22T10:26:46.635Z,22208
2018-07-22T10:27:46.156Z,22304
2018-07-22T10:28:46.898Z,22592
2018-07-22T10:29:46.378Z,23104
2018-07-22T10:30:46.373Z,23360
2018-07-22T10:31:46.632Z,23936
2018-07-22T10:32:46.641Z,22592
2018-07-22T10:33:46.124Z,22240
2018-07-22T10:34:46.650Z,23552
2018-07-22T10:35:46.692Z,23712
2018-07-22T10:36:46.658Z,23104
2018-07-22T10:37:46.141Z,22144
2018-07-22T10:38:46.667Z,22720
2018-07-22T10:39:46.404Z,22304
2018-07-22T10:40:46.259Z,22464
2018-07-22T10:41:46.414Z,22624
2018-07-22T10:42:46.677Z,22688
2018-07-22T10:43:46.680Z,22272
2018-07-22T10:44:46.689Z,21248
2018-07-22T10:45:46.678Z,20416
2018-07-22T10:46:46.683Z,19872
2018-07-22T10:47:46.691Z,19232
2018-07-22T10:48:46.439Z,18752
2018-07-22T10:49:46.697Z,17824
2018-07-22T10:50:46.444Z,17184
2018-07-22T10:51:46.445Z,17152
2018-07-22T10:52:46.447Z,17152
2018-07-22T10:53:46.707Z,17120
2018-07-22T10:54:46.714Z,17120
2018-07-22T10:55:46.712Z,16832
2018-07-22T10:56:46.458Z,16480
2018-07-22T10:57:46.464Z,15728
2018-07-22T10:58:46.720Z,14936
2018-07-22T10:59:46.765Z,14860
2018-07-22T11:00:46.730Z,14452
2018-07-22T11:01:46.730Z,13304
2018-07-22T11:02:46.731Z,11724
2018-07-22T11:03:46.473Z,12692
2018-07-22T11:04:46.742Z,14436
2018-07-22T11:05:46.744Z,14932
2018-07-22T11:06:46.738Z,15368
2018-07-22T11:07:46.746Z,15600
2018-07-22T11:08:46.752Z,15792
2018-07-22T11:09:46.747Z,15612
2018-07-22T11:10:46.237Z,15428
2018-07-22T11:11:46.498Z,15292
2018-07-22T11:12:46.491Z,15296
2018-07-22T11:13:46.751Z,15248
2018-07-22T11:14:47.513Z,15180
2018-07-22T11:15:46.503Z,15508
2018-07-22T11:16:46.241Z,15676
2018-07-22T11:17:46.767Z,15724
2018-07-22T11:18:46.769Z,15716
2018-07-22T11:19:46.768Z,15568
2018-07-22T11:20:46.772Z,15388
2018-07-22T11:21:46.767Z,15396
2018-07-22T11:22:46.777Z,15724
2018-07-22T11:23:46.520Z,15392
2018-07-22T11:24:46.775Z,15048
2018-07-22T11:25:46.773Z,14904
2018-07-22T11:26:46.782Z,14512
2018-07-22T11:27:46.272Z,14128
2018-07-22T11:28:46.882Z,13816
2018-07-22T11:29:46.789Z,14856
2018-07-22T11:30:46.798Z,15520
2018-07-22T11:31:46.789Z,15840
2018-07-22T11:32:46.799Z,16112
2018-07-22T11:33:46.794Z,16244
2018-07-22T11:34:46.282Z,16260
2018-07-22T11:35:46.800Z,16160
2018-07-22T11:36:46.800Z,15940
2018-07-22T11:37:46.801Z,15708
2018-07-22T11:38:46.548Z,15544
2018-07-22T11:39:46.557Z,15204
2018-07-22T11:40:46.293Z,15324
2018-07-22T11:41:46.808Z,15448
2018-07-22T11:42:46.809Z,15584
2018-07-22T11:43:46.842Z,15740
2018-07-22T11:44:46.808Z,15568
2018-07-22T11:45:46.809Z,15864
2018-07-22T11:46:46.561Z,16044
2018-07-22T11:47:46.824Z,16028
2018-07-22T11:48:46.825Z,15940
2018-07-22T11:49:46.832Z,15864
2018-07-22T11:50:47.242Z,15884
2018-07-22T11:51:46.570Z,15792
2018-07-22T11:52:46.314Z,15712
2018-07-22T11:53:46.841Z,15760
2018-07-22T11:54:46.839Z,15776
2018-07-22T11:55:46.844Z,15596
2018-07-22T11:56:46.589Z,15176
2018-07-22T11:57:46.584Z,14452
2018-07-22T11:58:46.594Z,13684
2018-07-22T11:59:46.858Z,13332
2018-07-22T12:00:46.599Z,13616
2018-07-22T12:01:46.617Z,13844
2018-07-22T12:02:46.876Z,14192
2018-07-22T12:03:46.608Z,14584
2018-07-22T12:04:46.611Z,15132
2018-07-22T12:05:46.349Z,15664
2018-07-22T12:06:46.355Z,16084
2018-07-22T12:07:47.185Z,16544
2018-07-22T12:08:46.358Z,16576
2018-07-22T12:09:46.620Z,17056
2018-07-22T12:10:46.886Z,17056
2018-07-22T12:11:46.896Z,16992
2018-07-22T12:12:46.781Z,16640
2018-07-22T12:13:46.632Z,16084
2018-07-22T12:14:46.635Z,16864
2018-07-22T12:15:46.379Z,16992
2018-07-22T12:16:46.645Z,16896
2018-07-22T12:17:46.895Z,16672
2018-07-22T12:18:46.906Z,16364
2018-07-22T12:19:46.899Z,16164
2018-07-22T12:20:46.649Z,15768
2018-07-22T12:21:46.908Z,15416
2018-07-22T12:22:46.907Z,14668
2018-07-22T12:23:46.916Z,13916
2018-07-22T12:24:46.403Z,13148
2018-07-22T12:25:46.919Z,13184
2018-07-22T12:26:46.928Z,12976
2018-07-22T12:27:46.923Z,12852
2018-07-22T12:28:46.674Z,12700
2018-07-22T12:29:46.933Z,12056
2018-07-22T12:30:46.940Z,11620
2018-07-22T12:31:46.702Z,10992
2018-07-22T12:32:46.684Z,10404
2018-07-22T12:33:47.002Z,9964
2018-07-22T12:34:46.431Z,9768
2018-07-22T12:35:46.954Z,9860
2018-07-22T12:36:46.698Z,10328
2018-07-22T12:37:46.957Z,11164
2018-07-22T12:38:46.959Z,11792
2018-07-22T12:39:46.962Z,11716
2018-07-22T12:40:46.966Z,12432
2018-07-22T12:41:46.709Z,11260
2018-07-22T12:42:46.969Z,10940
2018-07-22T12:43:46.968Z,11776
2018-07-22T12:44:46.975Z,12460
2018-07-22T12:45:46.978Z,13164
2018-07-22T12:46:46.725Z,13692
2018-07-22T12:47:46.729Z,13696
2018-07-22T12:48:46.730Z,13924
2018-07-22T12:49:46.730Z,14020
2018-07-22T12:50:46.480Z,14184
2018-07-22T12:51:46.989Z,13828
2018-07-22T12:52:46.482Z,13608
2018-07-22T12:53:46.876Z,14068
2018-07-22T12:54:46.747Z,14508
2018-07-22T12:55:47.004Z,14944
2018-07-22T12:56:46.751Z,13760
2018-07-22T12:57:46.755Z,13276
2018-07-22T12:58:47.021Z,12992
2018-07-22T12:59:46.761Z,12656
2018-07-22T13:00:47.016Z,12572
2018-07-22T13:01:46.773Z,12432
2018-07-22T13:02:47.025Z,12148
2018-07-22T13:03:47.033Z,12172
2018-07-22T13:04:46.772Z,11992
2018-07-22T13:05:46.516Z,12008
2018-07-22T13:06:46.837Z,12312
2018-07-22T13:07:47.037Z,11716
2018-07-22T13:08:47.048Z,11156
2018-07-22T13:09:46.793Z,11004
2018-07-22T13:10:46.529Z,11144
2018-07-22T13:11:46.803Z,11108
2018-07-22T13:12:46.806Z,10632
2018-07-22T13:13:47.047Z,10236
2018-07-22T13:14:47.061Z,10080
2018-07-22T13:15:47.057Z,10224
2018-07-22T13:16:47.061Z,10060
2018-07-22T13:17:47.065Z,9812
2018-07-22T13:18:47.092Z,9528
2018-07-22T13:19:46.554Z,9248
2018-07-22T13:20:47.085Z,9624
2018-07-22T13:21:47.083Z,9744
2018-07-22T13:22:46.821Z,9040
2018-07-22T13:23:47.080Z,8660
2018-07-22T13:24:47.079Z,8508
2018-07-22T13:25:46.832Z,8440
2018-07-22T13:26:46.576Z,8384
2018-07-22T13:27:47.095Z,8340
2018-07-22T13:28:46.839Z,8316
2018-07-22T13:29:47.090Z,8248
2018-07-22T13:30:46.838Z,8176
2018-07-22T13:31:46.845Z,8172
2018-07-22T13:32:46.849Z,8180